Time;durP1;ratioP1;P1;durP2;ratioP2;P2;SDS_P1;SDS_P2;PMS_P1;PMS_P2;Temp;Humidity;BMP_temperature;BMP_pressure;BME280_temperature;BME280_humidity;BME280_pressure;Samples;Min_cycle;Max_cycle;Signal;HPM_P1;HPM_P2
2022/07/31 00:00:51;;;;;;;7.93;4.50;;;21.00;99.90;;;;;;5013485;28;20041;-77
2022/07/31 00:03:17;;;;;;;8.80;4.72;;;21.00;99.90;;;;;;5008478;28;20060;-80
2022/07/31 00:05:43;;;;;;;5.90;3.83;;;21.00;99.90;;;;;;5014883;28;20034;-80
2022/07/31 00:08:09;;;;;;;7.50;4.45;;;21.00;99.90;;;;;;5015809;28;20551;-78
2022/07/31 00:10:35;;;;;;;7.55;4.57;;;20.90;99.90;;;;;;5013218;28;20024;-79
2022/07/31 00:13:00;;;;;;;7.07;4.47;;;20.80;99.90;;;;;;5013590;28;20037;-75
2022/07/31 00:15:26;;;;;;;5.85;4.45;;;20.80;99.90;;;;;;5018896;28;20021;-72
2022/07/31 00:17:52;;;;;;;7.10;4.20;;;20.80;99.90;;;;;;5020056;28;20555;-74
2022/07/31 00:20:18;;;;;;;8.50;5.35;;;20.80;99.90;;;;;;5014142;28;20018;-73
2022/07/31 00:22:46;;;;;;;7.40;4.47;;;20.80;99.90;;;;;;5014310;28;20040;-72
2022/07/31 00:25:14;;;;;;;7.38;3.92;;;20.70;99.90;;;;;;5013983;28;20033;-62
2022/07/31 00:27:41;;;;;;;6.63;4.30;;;20.60;99.90;;;;;;5013754;28;20473;-72
2022/07/31 00:30:08;;;;;;;7.85;5.07;;;20.60;99.90;;;;;;5013937;28;20030;-73
2022/07/31 00:32:34;;;;;;;5.63;4.40;;;20.60;99.90;;;;;;5013896;28;20029;-72
2022/07/31 00:35:00;;;;;;;9.10;5.80;;;20.60;99.90;;;;;;5019056;28;20042;-72
2022/07/31 00:37:26;;;;;;;10.13;5.25;;;20.50;99.90;;;;;;5016082;28;20113;-73
2022/07/31 00:39:53;;;;;;;9.20;5.85;;;20.40;99.90;;;;;;5012878;28;20021;-71
2022/07/31 00:42:21;;;;;;;10.30;5.60;;;20.50;99.90;;;;;;5013395;28;20026;-71
2022/07/31 00:44:47;;;;;;;8.77;5.40;;;20.50;99.90;;;;;;5026603;28;20042;-66
2022/07/31 00:47:13;;;;;;;6.90;4.85;;;20.40;99.90;;;;;;5027451;28;20075;-74
2022/07/31 00:49:39;;;;;;;9.23;5.20;;;20.40;99.90;;;;;;5009506;28;20124;-73
2022/07/31 00:52:05;;;;;;;11.52;6.70;;;20.40;99.90;;;;;;5019688;28;20034;-75
2022/07/31 00:54:32;;;;;;;10.13;6.50;;;20.30;99.90;;;;;;5007743;28;20025;-75
2022/07/31 00:56:58;;;;;;;10.52;6.53;;;20.30;99.90;;;;;;5014174;28;20030;-60
2022/07/31 00:59:25;;;;;;;11.75;7.13;;;20.30;99.90;;;;;;5013539;28;20456;-75
2022/07/31 01:01:53;;;;;;;10.20;6.40;;;20.30;99.90;;;;;;5027773;28;20034;-74
2022/07/31 01:04:19;;;;;;;11.45;6.68;;;20.30;99.90;;;;;;5012865;28;20107;-76
2022/07/31 01:06:46;;;;;;;9.77;5.47;;;20.20;99.90;;;;;;5013282;28;20021;-76
2022/07/31 01:09:15;;;;;;;10.07;5.90;;;20.30;99.90;;;;;;5012275;28;20057;-76
2022/07/31 01:12:06;;;;;;;9.50;6.13;;;20.20;99.90;;;;;;5012876;28;20505;-76
2022/07/31 01:14:37;;;;;;;8.48;5.03;;;20.20;99.90;;;;;;5009880;28;20492;-77
2022/07/31 01:17:06;;;;;;;7.65;4.97;;;20.20;99.90;;;;;;5012264;28;20239;-75
2022/07/31 01:19:40;;;;;;;7.65;5.10;;;20.20;99.90;;;;;;5013194;28;20492;-77
2022/07/31 01:22:44;;;;;;;7.15;4.95;;;20.10;99.90;;;;;;5028484;28;20108;-76
2022/07/31 01:25:30;;;;;;;8.25;5.18;;;20.10;99.90;;;;;;5012731;28;20049;-76
2022/07/31 01:28:43;;;;;;;7.22;5.07;;;20.00;99.90;;;;;;5027937;28;20026;-76
2022/07/31 01:31:17;;;;;;;6.80;4.40;;;20.00;99.90;;;;;;5027020;28;20094;-76
2022/07/31 01:33:50;;;;;;;10.25;5.13;;;20.00;99.90;;;;;;5010589;28;20030;-76
2022/07/31 01:36:21;;;;;;;6.85;4.30;;;19.90;99.90;;;;;;5014326;28;20036;-71
2022/07/31 01:38:50;;;;;;;6.63;4.80;;;20.00;99.90;;;;;;5012870;28;20062;-76
2022/07/31 01:41:20;;;;;;;7.97;4.75;;;19.90;99.90;;;;;;5008662;28;20133;-76
2022/07/31 01:43:50;;;;;;;8.43;4.80;;;19.90;99.90;;;;;;5023270;28;20484;-76
2022/07/31 01:46:23;;;;;;;6.45;4.43;;;19.90;99.90;;;;;;5015295;28;20045;-76
2022/07/31 01:48:51;;;;;;;6.57;4.28;;;19.90;99.90;;;;;;5009712;28;20033;-74
2022/07/31 01:51:18;;;;;;;6.68;4.88;;;19.90;99.90;;;;;;5022233;28;20399;-77
2022/07/31 01:53:46;;;;;;;8.85;5.28;;;19.90;99.90;;;;;;5012610;28;20026;-71
2022/07/31 01:56:17;;;;;;;7.70;4.60;;;19.90;99.90;;;;;;5038077;28;20076;-77
2022/07/31 01:58:45;;;;;;;6.78;4.50;;;19.80;99.90;;;;;;5011212;28;20032;-74
2022/07/31 02:01:35;;;;;;;6.68;4.55;;;19.80;99.90;;;;;;5010237;28;20046;-75
2022/07/31 02:04:02;;;;;;;6.93;4.45;;;19.70;99.90;;;;;;5010469;28;20019;-74
2022/07/31 02:06:30;;;;;;;9.43;4.28;;;19.80;99.90;;;;;;5017079;28;20044;-77
2022/07/31 02:08:58;;;;;;;7.65;4.60;;;19.80;99.90;;;;;;5005973;28;20030;-76
2022/07/31 02:11:24;;;;;;;6.47;4.40;;;19.80;99.90;;;;;;5026574;28;20026;-75
2022/07/31 02:13:52;;;;;;;6.15;3.97;;;19.70;99.90;;;;;;5012453;28;20018;-77
2022/07/31 02:16:20;;;;;;;11.18;4.80;;;19.70;99.90;;;;;;5044316;28;20385;-75
2022/07/31 02:18:52;;;;;;;8.95;5.05;;;19.70;99.90;;;;;;5012667;28;20588;-77
2022/07/31 02:21:24;;;;;;;8.75;4.53;;;19.70;99.90;;;;;;5011505;28;20441;-77
2022/07/31 02:23:51;;;;;;;7.57;4.75;;;19.70;99.90;;;;;;5020799;28;20029;-76
2022/07/31 02:26:17;;;;;;;7.43;4.45;;;19.70;99.90;;;;;;5013398;28;20523;-69
2022/07/31 02:28:45;;;;;;;7.03;4.60;;;19.60;99.90;;;;;;5013650;28;20093;-77
2022/07/31 02:31:13;;;;;;;5.65;4.40;;;19.60;99.90;;;;;;5015102;28;20496;-77
2022/07/31 02:33:45;;;;;;;6.13;4.20;;;19.60;99.90;;;;;;5016410;28;20030;-77
2022/07/31 02:36:12;;;;;;;7.78;4.68;;;19.60;99.90;;;;;;5016164;28;20279;-75
2022/07/31 02:38:39;;;;;;;8.20;4.82;;;19.60;99.90;;;;;;5016007;28;20061;-77
2022/07/31 02:41:06;;;;;;;10.23;4.95;;;19.60;99.90;;;;;;5018969;28;20032;-74
2022/07/31 02:43:34;;;;;;;6.85;4.50;;;19.60;99.90;;;;;;5039609;28;20048;-65
2022/07/31 02:46:11;;;;;;;6.20;4.35;;;19.50;99.90;;;;;;5031237;28;20033;-71
2022/07/31 02:48:39;;;;;;;7.55;5.38;;;19.50;99.90;;;;;;5032118;28;20029;-72
2022/07/31 02:51:08;;;;;;;6.10;4.75;;;19.50;99.90;;;;;;5029365;28;20029;-72
2022/07/31 02:53:36;;;;;;;8.35;4.53;;;19.50;99.90;;;;;;5029479;28;20078;-73
2022/07/31 02:56:04;;;;;;;8.00;5.03;;;19.50;99.90;;;;;;5029567;28;20022;-70
2022/07/31 02:58:32;;;;;;;7.30;4.43;;;19.50;99.90;;;;;;5010555;28;20029;-72
2022/07/31 03:01:00;;;;;;;8.07;4.70;;;19.50;99.90;;;;;;5014007;28;20037;-70
2022/07/31 03:03:26;;;;;;;9.35;5.65;;;19.60;99.90;;;;;;5010019;28;20026;-71
2022/07/31 03:05:52;;;;;;;6.20;4.43;;;19.50;99.90;;;;;;5010875;28;20486;-72
2022/07/31 03:08:18;;;;;;;7.30;4.65;;;19.50;99.90;;;;;;5004377;28;20030;-71
2022/07/31 03:10:47;;;;;;;7.65;4.38;;;19.50;99.90;;;;;;5030291;28;20131;-72
2022/07/31 03:13:15;;;;;;;8.55;4.75;;;19.40;99.90;;;;;;5012436;28;20037;-72
2022/07/31 03:15:42;;;;;;;8.48;5.00;;;19.40;99.90;;;;;;5029302;28;20407;-72
2022/07/31 03:18:13;;;;;;;7.68;5.35;;;19.40;99.90;;;;;;5028637;28;20037;-70
2022/07/31 03:20:42;;;;;;;8.32;5.07;;;19.40;99.90;;;;;;5029219;28;20033;-72
2022/07/31 03:23:11;;;;;;;7.78;5.18;;;19.30;99.90;;;;;;5029002;28;20076;-72
2022/07/31 03:25:47;;;;;;;8.95;4.50;;;19.30;99.90;;;;;;5029092;28;20045;-71
2022/07/31 03:28:13;;;;;;;7.93;4.63;;;19.40;99.90;;;;;;5013568;28;20026;-72
2022/07/31 03:30:38;;;;;;;8.98;5.65;;;19.30;99.90;;;;;;5013718;28;20435;-72
2022/07/31 03:33:05;;;;;;;7.93;5.55;;;19.20;99.90;;;;;;5013536;28;20100;-72
2022/07/31 03:35:34;;;;;;;8.80;5.22;;;19.20;99.90;;;;;;5028828;28;20046;-69
2022/07/31 03:38:00;;;;;;;7.88;5.47;;;19.20;99.90;;;;;;5028250;28;20069;-72
2022/07/31 03:40:26;;;;;;;7.07;4.95;;;19.20;99.90;;;;;;5012425;28;20037;-71
2022/07/31 03:42:54;;;;;;;6.80;5.07;;;19.40;99.90;;;;;;5028244;28;20531;-72
2022/07/31 03:45:21;;;;;;;8.00;5.00;;;19.70;99.90;;;;;;5028428;28;20069;-72
2022/07/31 03:47:47;;;;;;;8.32;5.60;;;20.00;99.90;;;;;;5011859;28;20026;-71
2022/07/31 03:50:14;;;;;;;7.43;5.25;;;20.30;99.90;;;;;;5012242;28;20026;-73
2022/07/31 03:52:41;;;;;;;6.70;4.75;;;20.60;99.90;;;;;;5013155;28;20464;-72
2022/07/31 03:55:07;;;;;;;7.32;4.85;;;20.80;99.90;;;;;;5028363;28;20032;-72
2022/07/31 03:57:36;;;;;;;12.05;4.88;;;21.40;99.90;;;;;;5013022;28;20022;-73
2022/07/31 04:00:04;;;;;;;7.43;5.47;;;21.70;99.90;;;;;;5028732;28;20460;-71
2022/07/31 04:02:31;;;;;;;7.80;4.95;;;21.80;99.90;;;;;;5012631;28;20084;-72
2022/07/31 04:05:05;;;;;;;5.47;4.15;;;22.40;99.90;;;;;;5027507;28;20041;-73
2022/07/31 04:07:31;;;;;;;6.03;4.38;;;23.10;99.90;;;;;;5043862;28;20076;-72
2022/07/31 04:09:56;;;;;;;7.75;5.00;;;23.20;99.90;;;;;;5044324;28;20388;-73
2022/07/31 04:12:22;;;;;;;5.22;4.10;;;23.90;99.90;;;;;;5011233;28;20562;-73
2022/07/31 04:14:48;;;;;;;6.97;4.35;;;24.20;99.90;;;;;;5009083;28;20366;-72
2022/07/31 04:17:14;;;;;;;5.50;4.15;;;24.60;99.90;;;;;;5027868;28;20161;-73
2022/07/31 04:19:40;;;;;;;5.57;4.30;;;25.50;99.90;;;;;;5012627;28;20048;-69
2022/07/31 04:22:06;;;;;;;6.93;4.43;;;25.40;99.90;;;;;;5011607;28;20034;-72
2022/07/31 04:24:32;;;;;;;6.90;4.75;;;26.50;99.90;;;;;;5026523;28;20032;-68
2022/07/31 04:27:06;;;;;;;4.45;3.47;;;;;;;;;;5026874;28;20487;-71
2022/07/31 04:29:38;;;;;;;5.40;3.28;;;26.90;99.90;;;;;;5010951;28;20026;-71
2022/07/31 04:32:04;;;;;;;3.53;3.20;;;27.40;99.90;;;;;;5011197;28;20056;-70
2022/07/31 04:34:34;;;;;;;6.40;3.70;;;26.40;99.90;;;;;;5026635;28;20030;-68
2022/07/31 04:37:01;;;;;;;5.13;3.58;;;26.90;99.90;;;;;;5012097;28;20030;-69
2022/07/31 04:39:27;;;;;;;4.85;3.50;;;26.90;99.90;;;;;;5011944;28;20033;-70
2022/07/31 04:41:55;;;;;;;4.72;3.60;;;26.60;99.90;;;;;;5027364;28;20033;-74
2022/07/31 04:44:21;;;;;;;5.00;3.50;;;26.70;99.90;;;;;;5026609;28;20049;-74
2022/07/31 04:47:00;;;;;;;6.45;3.70;;;27.20;99.90;;;;;;5027075;28;20393;-71
2022/07/31 04:49:27;;;;;;;5.13;3.10;;;;;;;;;;5026200;28;20498;-71
2022/07/31 04:51:53;;;;;;;5.68;3.40;;;;;;;;;;5010508;28;20026;-71
2022/07/31 04:54:20;;;;;;;4.72;3.58;;;27.70;99.90;;;;;;5009136;28;20702;-71
2022/07/31 04:56:47;;;;;;;6.53;3.40;;;27.70;99.90;;;;;;5020809;28;20025;-71
2022/07/31 04:59:16;;;;;;;7.82;3.45;;;27.70;99.90;;;;;;5007806;28;20036;-70
2022/07/31 05:01:46;;;;;;;6.30;3.40;;;27.20;99.90;;;;;;5010079;28;20476;-71
2022/07/31 05:04:14;;;;;;;6.65;3.30;;;27.20;99.90;;;;;;5011153;28;20503;-71
2022/07/31 05:06:42;;;;;;;6.03;3.35;;;26.60;99.90;;;;;;5028392;28;20113;-71
2022/07/31 05:09:14;;;;;;;7.13;4.00;;;26.30;99.90;;;;;;5028281;28;20061;-71
2022/07/31 05:11:41;;;;;;;6.05;4.13;;;24.80;99.90;;;;;;5025936;28;20034;-68
2022/07/31 05:14:08;;;;;;;5.72;3.97;;;;;;;;;;5026546;28;20476;-70
2022/07/31 05:16:35;;;;;;;6.18;3.47;;;;;;;;;;5005989;28;20033;-71
2022/07/31 05:19:01;;;;;;;5.93;3.90;;;;;;;;;;5007757;28;20025;-68
2022/07/31 05:21:46;;;;;;;5.75;3.60;;;23.50;99.90;;;;;;5002649;28;20088;-74
2022/07/31 05:24:30;;;;;;;5.70;3.90;;;23.50;99.90;;;;;;5011481;28;20044;-70
2022/07/31 05:26:58;;;;;;;5.85;3.65;;;23.50;99.90;;;;;;5041819;28;20044;-74
2022/07/31 05:29:25;;;;;;;5.00;3.78;;;23.40;99.90;;;;;;5011336;28;20030;-70
2022/07/31 05:31:51;;;;;;;5.70;3.63;;;23.40;99.90;;;;;;5011725;28;20037;-76
2022/07/31 05:34:17;;;;;;;5.35;3.88;;;22.90;99.90;;;;;;5011099;28;20033;-68
2022/07/31 05:36:44;;;;;;;4.45;3.33;;;22.90;99.90;;;;;;5027728;28;20030;-75
2022/07/31 05:39:12;;;;;;;5.05;3.38;;;23.00;99.90;;;;;;5043882;28;20397;-75
2022/07/31 05:41:37;;;;;;;7.18;4.03;;;23.10;99.90;;;;;;5002795;28;20026;-78
2022/07/31 05:44:22;;;;;;;6.18;3.95;;;23.20;99.90;;;;;;5010236;28;20049;-77
2022/07/31 05:46:49;;;;;;;8.65;5.35;;;23.30;99.90;;;;;;5044370;28;20026;-77
2022/07/31 05:49:16;;;;;;;7.45;4.25;;;23.30;99.90;;;;;;5043456;28;20032;-73
2022/07/31 05:51:45;;;;;;;5.97;4.07;;;23.40;99.90;;;;;;5009195;28;20036;-77
2022/07/31 05:54:11;;;;;;;6.88;4.00;;;23.50;99.90;;;;;;5021765;28;20438;-76
2022/07/31 05:56:56;;;;;;;6.95;4.43;;;23.50;99.90;;;;;;5009746;28;20125;-78
2022/07/31 05:59:33;;;;;;;5.97;4.00;;;23.60;99.90;;;;;;5008922;28;20026;-76
2022/07/31 06:01:59;;;;;;;6.63;4.22;;;23.80;99.90;;;;;;5013789;28;20116;-75
2022/07/31 06:04:26;;;;;;;10.18;6.25;;;24.00;99.90;;;;;;5033713;28;20379;-69
2022/07/31 06:06:52;;;;;;;7.22;3.75;;;24.20;99.90;;;;;;5023647;28;20059;-75
2022/07/31 06:09:17;;;;;;;9.07;4.25;;;24.20;99.90;;;;;;5010901;28;20018;-73
2022/07/31 06:11:44;;;;;;;8.38;4.75;;;24.30;99.90;;;;;;5015110;28;20429;-80
2022/07/31 06:14:11;;;;;;;8.35;4.63;;;24.10;99.90;;;;;;5030124;28;20046;-79
2022/07/31 06:17:07;;;;;;;7.97;4.50;;;24.20;99.90;;;;;;5017003;28;20088;-79
2022/07/31 06:19:34;;;;;;;5.10;3.55;;;24.10;99.90;;;;;;5031011;28;20030;-78
2022/07/31 06:22:00;;;;;;;6.38;3.78;;;24.30;99.90;;;;;;5029472;28;20033;-76
2022/07/31 06:24:28;;;;;;;7.22;4.15;;;24.50;99.90;;;;;;5047735;28;20440;-80
2022/07/31 06:27:00;;;;;;;6.13;3.40;;;24.60;99.90;;;;;;5028048;28;20022;-80
2022/07/31 06:29:27;;;;;;;4.50;2.63;;;24.60;99.90;;;;;;5022496;28;20102;-80
2022/07/31 06:31:54;;;;;;;7.30;3.30;;;24.80;99.90;;;;;;5011193;28;20044;-72
2022/07/31 06:34:20;;;;;;;8.20;4.05;;;24.90;99.90;;;;;;5025467;28;20069;-79
2022/07/31 06:36:47;;;;;;;5.00;2.92;;;25.00;99.90;;;;;;5030542;28;20108;-77
2022/07/31 06:39:16;;;;;;;6.28;3.78;;;25.20;99.90;;;;;;5034555;28;20030;-73
2022/07/31 06:42:16;;;;;;;4.60;3.05;;;25.10;99.90;;;;;;5031876;28;20044;-68
2022/07/31 06:45:02;;;;;;;6.65;3.38;;;25.40;99.90;;;;;;5032193;28;20120;-74
2022/07/31 06:47:51;;;;;;;4.45;3.42;;;25.20;99.90;;;;;;5029671;28;20138;-79
2022/07/31 06:50:32;;;;;;;5.13;3.75;;;25.10;99.90;;;;;;5032143;28;20033;-75
2022/07/31 06:53:15;;;;;;;6.10;3.25;;;25.00;99.90;;;;;;5025864;28;20541;-80
2022/07/31 06:55:41;;;;;;;7.00;2.90;;;25.40;99.90;;;;;;5027949;28;20029;-77
2022/07/31 06:58:07;;;;;;;4.20;2.60;;;25.40;99.90;;;;;;5027886;28;20029;-83
2022/07/31 07:00:33;;;;;;;2.97;2.35;;;25.40;99.90;;;;;;5028342;28;20040;-79
2022/07/31 07:03:00;;;;;;;4.90;2.58;;;25.40;99.90;;;;;;4996882;28;20022;-80
2022/07/31 07:05:26;;;;;;;4.28;1.88;;;25.50;99.90;;;;;;5010912;28;20055;-80
2022/07/31 07:07:54;;;;;;;2.60;2.00;;;25.60;99.90;;;;;;5003090;28;20034;-81
2022/07/31 07:10:20;;;;;;;3.80;2.10;;;25.10;99.90;;;;;;5011160;28;20025;-81
2022/07/31 07:13:05;;;;;;;5.22;2.70;;;25.30;99.90;;;;;;5010415;28;20045;-85
2022/07/31 07:15:35;;;;;;;3.63;2.38;;;25.80;99.90;;;;;;4995892;28;20026;-78
2022/07/31 07:18:00;;;;;;;4.63;2.35;;;25.50;99.90;;;;;;4998287;28;20441;-80
2022/07/31 07:21:03;;;;;;;6.90;2.40;;;;;;;;;;4972914;28;20485;-78
2022/07/31 07:23:29;;;;;;;3.55;1.80;;;25.80;99.90;;;;;;4953428;29;20046;-76
2022/07/31 07:26:27;;;;;;;2.45;2.03;;;26.00;99.90;;;;;;4962853;28;20058;-74
2022/07/31 07:28:53;;;;;;;2.33;1.90;;;25.90;99.90;;;;;;4948221;28;20027;-76
2022/07/31 07:31:19;;;;;;;3.78;2.30;;;25.80;99.90;;;;;;4957551;28;20027;-74
2022/07/31 07:33:46;;;;;;;3.03;2.28;;;25.80;99.90;;;;;;4960477;28;20516;-77
2022/07/31 07:36:15;;;;;;;2.08;1.85;;;25.70;99.90;;;;;;4956992;28;20035;-74
2022/07/31 07:38:42;;;;;;;3.95;2.47;;;25.90;99.90;;;;;;4969701;28;20078;-77
2022/07/31 07:41:08;;;;;;;3.65;2.20;;;25.90;99.90;;;;;;4955828;28;20371;-78
2022/07/31 07:43:33;;;;;;;3.75;1.95;;;25.70;99.90;;;;;;4969668;28;20051;-77
2022/07/31 07:45:59;;;;;;;4.00;2.08;;;26.00;99.90;;;;;;4971384;28;20051;-74
2022/07/31 07:48:25;;;;;;;2.78;2.28;;;26.30;99.90;;;;;;4949286;28;20034;-78
2022/07/31 07:51:12;;;;;;;4.50;2.40;;;;;;;;;;4957111;28;20128;-75
2022/07/31 07:53:48;;;;;;;2.42;1.95;;;26.80;99.90;;;;;;4959650;28;20027;-78
2022/07/31 07:56:32;;;;;;;3.42;1.67;;;26.70;99.90;;;;;;4971572;28;20030;-77
2022/07/31 07:59:24;;;;;;;4.43;2.50;;;26.90;99.90;;;;;;4960336;28;20081;-82
2022/07/31 08:02:29;;;;;;;4.13;2.17;;;26.90;99.90;;;;;;4989459;28;20048;-75
2022/07/31 08:04:55;;;;;;;5.10;2.17;;;26.90;99.90;;;;;;4974553;28;20501;-76
2022/07/31 08:07:31;;;;;;;3.70;2.33;;;27.10;99.90;;;;;;4979233;28;20195;-77
2022/07/31 08:09:58;;;;;;;4.20;2.58;;;27.40;99.90;;;;;;4990012;28;20022;-76
2022/07/31 08:12:34;;;;;;;3.13;2.20;;;;;;;;;;4988739;28;20097;-77
2022/07/31 08:15:04;;;;;;;7.75;2.55;;;27.40;99.90;;;;;;4985580;28;20389;-63
2022/07/31 08:17:36;;;;;;;2.78;1.83;;;27.40;99.90;;;;;;4991283;28;20036;-77
2022/07/31 08:20:03;;;;;;;5.72;2.67;;;;;;;;;;4989049;28;20159;-76
2022/07/31 08:22:29;;;;;;;6.82;2.25;;;27.30;99.90;;;;;;4985706;28;20050;-77
2022/07/31 08:24:55;;;;;;;7.95;3.08;;;27.30;99.90;;;;;;4987558;28;20614;-77
2022/07/31 08:27:25;;;;;;;3.08;2.17;;;26.90;99.90;;;;;;4984422;28;20034;-75
2022/07/31 08:29:57;;;;;;;2.58;1.85;;;26.90;99.90;;;;;;4991582;28;20088;-74
2022/07/31 08:32:25;;;;;;;4.63;2.70;;;26.90;99.90;;;;;;4995123;28;20065;-75
2022/07/31 08:35:15;;;;;;;3.58;2.55;;;26.90;99.90;;;;;;5001192;28;20065;-74
2022/07/31 08:37:41;;;;;;;3.97;2.25;;;26.60;99.90;;;;;;5007808;28;20030;-72
2022/07/31 08:40:07;;;;;;;4.88;2.38;;;26.10;99.90;;;;;;5027751;28;20041;-77
2022/07/31 08:42:35;;;;;;;3.03;2.10;;;26.80;99.90;;;;;;5012194;28;20700;-76
2022/07/31 08:45:04;;;;;;;5.45;2.88;;;26.60;99.90;;;;;;5012303;28;20484;-76
2022/07/31 08:47:32;;;;;;;5.32;2.85;;;26.90;99.90;;;;;;5008482;28;20032;-78
2022/07/31 08:50:05;;;;;;;3.83;2.40;;;27.20;99.90;;;;;;5010735;28;20061;-79
2022/07/31 08:52:33;;;;;;;5.47;2.85;;;27.10;99.90;;;;;;5011680;28;20429;-78
2022/07/31 08:55:15;;;;;;;4.35;2.08;;;27.10;99.90;;;;;;5009578;28;20413;-77
2022/07/31 08:57:45;;;;;;;3.30;2.38;;;27.30;99.90;;;;;;5040812;28;20022;-74
2022/07/31 09:00:16;;;;;;;2.55;2.13;;;27.40;99.90;;;;;;5011846;28;20065;-76
2022/07/31 09:02:43;;;;;;;4.13;2.05;;;27.40;99.90;;;;;;5009958;28;20053;-76
2022/07/31 09:05:27;;;;;;;4.07;2.40;;;27.10;99.90;;;;;;5007110;28;20036;-76
2022/07/31 09:07:53;;;;;;;3.15;2.22;;;27.40;99.90;;;;;;5010022;28;20030;-78
2022/07/31 09:10:26;;;;;;;4.90;2.40;;;27.40;99.00;;;;;;5025453;28;20037;-77
2022/07/31 09:12:54;;;;;;;3.28;1.95;;;27.50;99.90;;;;;;5030980;28;20022;-74
2022/07/31 09:15:26;;;;;;;6.85;2.25;;;;;;;;;;5040892;28;20038;-62
2022/07/31 09:17:52;;;;;;;;;;;27.60;92.20;;;;;;5007853;28;20432;-74
2022/07/31 09:20:21;;;;;;;2.85;1.80;;;27.70;93.00;;;;;;5010833;28;19913;-78
2022/07/31 09:23:02;;;;;;;2.63;1.95;;;27.60;96.60;;;;;;5010785;28;20562;-77
2022/07/31 09:25:29;;;;;;;4.75;2.63;;;28.10;99.90;;;;;;5024422;28;20038;-76
2022/07/31 09:28:01;;;;;;;3.45;1.92;;;28.10;95.10;;;;;;5001607;28;20076;-63
2022/07/31 09:30:27;;;;;;;4.22;2.50;;;28.40;96.00;;;;;;4991871;28;20034;-68
2022/07/31 09:33:13;;;;;;;2.42;2.17;;;28.30;96.10;;;;;;5013514;28;20026;-77
2022/07/31 09:36:03;;;;;;;2.83;1.90;;;28.20;91.10;;;;;;5008819;28;20038;-78
2022/07/31 09:38:39;;;;;;;7.20;3.50;;;28.10;90.80;;;;;;4997479;28;20037;-78
2022/07/31 09:41:24;;;;;;;9.98;2.67;;;28.20;93.00;;;;;;5011556;28;20081;-77
2022/07/31 09:44:03;;;;;;;6.35;2.90;;;28.30;90.50;;;;;;5024698;28;20092;-73
2022/07/31 09:46:42;;;;;;;2.20;1.50;;;28.30;90.60;;;;;;4992234;28;20064;-79
2022/07/31 09:49:08;;;;;;;1.80;1.60;;;27.90;89.70;;;;;;5008880;28;20427;-75
2022/07/31 09:51:47;;;;;;;1.85;1.65;;;28.20;90.90;;;;;;4992213;28;20022;-69
2022/07/31 09:54:23;;;;;;;2.22;1.83;;;28.10;92.80;;;;;;4990172;28;20034;-70
2022/07/31 09:57:09;;;;;;;2.65;2.03;;;;;;;;;;5024667;28;20032;-76
2022/07/31 09:59:36;;;;;;;3.85;2.20;;;28.50;90.40;;;;;;5019930;28;20153;-78
2022/07/31 10:02:04;;;;;;;2.30;1.80;;;28.60;99.90;;;;;;5006879;28;20380;-72
2022/07/31 10:04:30;;;;;;;1.90;1.70;;;28.70;88.00;;;;;;4989731;28;20089;-75
2022/07/31 10:06:57;;;;;;;2.10;1.67;;;28.60;88.50;;;;;;4998537;28;20038;-64
2022/07/31 10:09:26;;;;;;;2.30;1.77;;;28.80;87.50;;;;;;5023328;28;20030;-76
2022/07/31 10:12:18;;;;;;;5.25;1.85;;;28.80;99.90;;;;;;4972130;28;20042;-75
2022/07/31 10:14:46;;;;;;;1.65;1.55;;;;;;;;;;4971926;28;20030;-79
2022/07/31 10:17:18;;;;;;;3.25;1.67;;;28.30;88.30;;;;;;4987334;28;20037;-76
2022/07/31 10:20:05;;;;;;;2.15;1.50;;;28.50;91.40;;;;;;4988122;28;20042;-74
2022/07/31 10:22:46;;;;;;;3.90;2.28;;;28.20;91.20;;;;;;4971055;28;20070;-78
2022/07/31 10:25:21;;;;;;;2.38;1.75;;;28.10;93.50;;;;;;4971498;28;20045;-76
2022/07/31 10:27:48;;;;;;;6.03;2.25;;;28.10;96.20;;;;;;4985039;28;20026;-75
2022/07/31 10:30:15;;;;;;;2.22;1.95;;;28.10;92.40;;;;;;4985710;28;20046;-70
2022/07/31 10:32:45;;;;;;;3.13;1.50;;;28.30;92.30;;;;;;4990351;28;20121;-74
2022/07/31 10:35:23;;;;;;;3.83;2.13;;;28.20;92.50;;;;;;4990236;28;20074;-75
2022/07/31 10:38:10;;;;;;;4.65;2.30;;;28.40;90.90;;;;;;4990374;28;20492;-76
2022/07/31 10:41:31;;;;;;;2.50;1.85;;;28.50;94.50;;;;;;4970653;28;20097;-76
2022/07/31 10:44:23;;;;;;;4.15;2.15;;;28.70;95.70;;;;;;4970386;28;20468;-77
2022/07/31 10:46:58;;;;;;;5.75;2.45;;;28.40;94.20;;;;;;4935989;29;20146;-78
2022/07/31 10:49:39;;;;;;;1.60;1.50;;;28.60;94.40;;;;;;4966207;28;20026;-76
2022/07/31 10:52:36;;;;;;;3.03;2.03;;;28.80;93.50;;;;;;4990121;28;20106;-75
2022/07/31 10:55:21;;;;;;;4.57;2.22;;;29.00;93.60;;;;;;4973563;28;20038;-75
2022/07/31 10:58:14;;;;;;;6.38;2.45;;;28.30;99.40;;;;;;4973650;28;20409;-70
2022/07/31 11:00:51;;;;;;;2.58;1.83;;;28.80;99.90;;;;;;4955687;28;20064;-68
2022/07/31 11:03:22;;;;;;;4.75;2.08;;;29.10;99.90;;;;;;4990186;28;20035;-77
2022/07/31 11:06:06;;;;;;;2.58;1.88;;;29.10;99.90;;;;;;4961372;28;20571;-78
2022/07/31 11:08:56;;;;;;;3.85;1.70;;;29.00;99.90;;;;;;4905327;29;20071;-79
2022/07/31 11:11:41;;;;;;;5.57;1.90;;;;;;;;;;4903524;29;20608;-78
2022/07/31 11:14:31;;;;;;;2.15;1.63;;;29.30;99.90;;;;;;4912374;29;20040;-78
2022/07/31 11:17:07;;;;;;;5.30;2.00;;;29.30;99.90;;;;;;4897620;29;20096;-77
2022/07/31 11:19:49;;;;;;;2.10;1.50;;;29.80;99.50;;;;;;4897562;29;20041;-76
2022/07/31 11:22:16;;;;;;;3.35;1.77;;;29.60;94.50;;;;;;4893375;29;20033;-74
2022/07/31 11:24:52;;;;;;;2.63;1.70;;;;;;;;;;4903750;29;20101;-74
2022/07/31 11:27:28;;;;;;;4.53;1.52;;;;;;;;;;4916345;29;20043;-76
2022/07/31 11:30:04;;;;;;;3.72;1.50;;;28.80;99.50;;;;;;4916388;29;20050;-75
2022/07/31 11:32:30;;;;;;;4.63;1.67;;;;;;;;;;4914568;29;20518;-79
2022/07/31 11:34:56;;;;;;;6.18;1.48;;;28.70;98.40;;;;;;4905237;29;20060;-81
2022/07/31 11:37:24;;;;;;;2.58;2.00;;;28.90;98.60;;;;;;4916343;29;20040;-73
2022/07/31 11:39:53;;;;;;;3.85;2.08;;;28.80;98.60;;;;;;4903607;29;20024;-81
2022/07/31 11:42:21;;;;;;;4.57;2.08;;;28.90;97.70;;;;;;4916439;29;20039;-81
2022/07/31 11:44:48;;;;;;;4.20;1.67;;;28.80;98.90;;;;;;4912239;29;20041;-84
2022/07/31 11:47:13;;;;;;;2.78;1.70;;;28.90;99.90;;;;;;4954420;28;20035;-83
2022/07/31 11:49:40;;;;;;;3.75;1.88;;;;;;;;;;4954007;29;20032;-81
2022/07/31 11:52:08;;;;;;;2.90;1.67;;;29.40;99.90;;;;;;4998308;28;20049;-80
2022/07/31 11:54:35;;;;;;;7.43;2.10;;;29.10;99.90;;;;;;5015063;28;20030;-82
2022/07/31 11:57:01;;;;;;;1.30;1.10;;;28.80;99.90;;;;;;5014083;28;20045;-78
2022/07/31 11:59:34;;;;;;;2.80;1.70;;;29.00;99.90;;;;;;5014272;28;20030;-80
2022/07/31 12:02:11;;;;;;;2.35;1.42;;;28.90;99.90;;;;;;5001625;28;20021;-78
2022/07/31 12:04:38;;;;;;;1.98;1.67;;;29.00;97.70;;;;;;5000247;28;20041;-83
2022/07/31 12:07:07;;;;;;;5.72;1.52;;;29.10;97.30;;;;;;5014328;28;20030;-83
2022/07/31 12:09:35;;;;;;;2.05;1.45;;;29.10;96.40;;;;;;5014228;28;20103;-80
2022/07/31 12:12:02;;;;;;;3.15;1.70;;;29.10;98.50;;;;;;5014243;28;20037;-81
2022/07/31 12:14:32;;;;;;;3.63;1.50;;;29.50;99.90;;;;;;4999424;28;20030;-78
2022/07/31 12:16:59;;;;;;;3.15;1.90;;;29.10;99.90;;;;;;5013803;28;20033;-81
2022/07/31 12:19:30;;;;;;;3.20;1.55;;;;;;;;;;5014478;28;20018;-80
2022/07/31 12:21:56;;;;;;;2.35;1.90;;;28.80;99.90;;;;;;5014239;28;20026;-83
2022/07/31 12:24:22;;;;;;;3.00;2.00;;;28.90;99.90;;;;;;5014057;28;20025;-83
2022/07/31 12:26:54;;;;;;;3.05;1.73;;;29.00;97.10;;;;;;5013859;28;20036;-83
2022/07/31 12:29:30;;;;;;;1.77;1.67;;;29.00;98.70;;;;;;5013825;28;20018;-82
2022/07/31 12:31:57;;;;;;;2.25;1.48;;;28.70;99.30;;;;;;5014038;28;20018;-82
2022/07/31 12:34:35;;;;;;;3.75;1.80;;;28.70;99.90;;;;;;5013419;28;20097;-75
2022/07/31 12:37:09;;;;;;;3.40;1.75;;;28.90;97.90;;;;;;5013831;28;20026;-67
2022/07/31 12:39:49;;;;;;;3.83;1.88;;;28.90;97.70;;;;;;5013651;28;20531;-78
2022/07/31 12:42:33;;;;;;;1.63;1.20;;;28.60;99.90;;;;;;5014445;28;20030;-74
2022/07/31 12:45:00;;;;;;;4.00;1.95;;;;;;;;;;5000423;28;20085;-71
2022/07/31 12:47:32;;;;;;;3.03;1.40;;;28.40;93.80;;;;;;5014029;28;20124;-82
2022/07/31 12:49:59;;;;;;;4.22;2.03;;;28.40;94.70;;;;;;5014130;28;20022;-85
2022/07/31 12:52:30;;;;;;;3.78;1.55;;;28.40;95.40;;;;;;5009176;28;20420;-80
2022/07/31 12:54:56;;;;;;;2.42;1.40;;;;;;;;;;5012429;28;20026;-79
2022/07/31 12:57:22;;;;;;;1.73;1.58;;;28.30;93.20;;;;;;5012805;28;20026;-81
2022/07/31 12:59:48;;;;;;;3.80;1.67;;;;;;;;;;5011939;28;20469;-76
2022/07/31 13:02:15;;;;;;;3.22;1.98;;;28.70;89.80;;;;;;5013022;28;20164;-82
2022/07/31 13:04:40;;;;;;;4.53;1.35;;;29.10;97.10;;;;;;5012936;28;20037;-83
2022/07/31 13:07:07;;;;;;;3.80;1.30;;;29.10;97.40;;;;;;5013006;28;20391;-81
2022/07/31 13:09:33;;;;;;;3.63;1.52;;;29.20;96.40;;;;;;5012345;28;20030;-82
2022/07/31 13:11:59;;;;;;;11.15;1.33;;;29.20;95.30;;;;;;5027810;28;20033;-81
2022/07/31 13:14:25;;;;;;;3.30;1.35;;;29.10;94.60;;;;;;5012950;28;20392;-79